Time;durP1;ratioP1;P1;durP2;ratioP2;P2;SDS_P1;SDS_P2;PMS_P1;PMS_P2;Temp;Humidity;BMP_temperature;BMP_pressure;BME280_temperature;BME280_humidity;BME280_pressure;Samples;Min_cycle;Max_cycle;Signal;HPM_P1;HPM_P2
2022/07/02 00:02:00;;;;;;;4.17;1.10;;;14.00;92.80;;;;;;5061458;28;20473;-47
2022/07/02 00:04:31;;;;;;;2.67;1.53;;;13.90;92.80;;;;;;5055256;28;20485;-47
2022/07/02 00:06:57;;;;;;;4.00;1.50;;;13.80;92.80;;;;;;5061654;28;20492;-47
2022/07/02 00:09:26;;;;;;;1.83;1.23;;;13.80;93.10;;;;;;5062128;28;20478;-47
2022/07/02 00:11:54;;;;;;;3.43;1.77;;;13.70;92.90;;;;;;5064170;28;20487;-48
2022/07/02 00:14:21;;;;;;;4.67;1.60;;;13.70;93.20;;;;;;5061235;28;20489;-47
2022/07/02 00:16:48;;;;;;;3.50;1.70;;;13.60;93.20;;;;;;5055447;28;21094;-48
2022/07/02 00:19:15;;;;;;;3.93;1.60;;;13.50;93.40;;;;;;5062265;28;20841;-48
2022/07/02 00:21:42;;;;;;;1.97;1.63;;;13.50;93.40;;;;;;5063630;28;20763;-47
2022/07/02 00:24:08;;;;;;;1.90;1.40;;;13.50;93.30;;;;;;5056652;28;20490;-47
2022/07/02 00:26:40;;;;;;;2.23;1.70;;;13.60;93.30;;;;;;5059331;28;20481;-47
2022/07/02 00:29:16;;;;;;;2.93;1.60;;;13.60;93.20;;;;;;5034076;28;20828;-48
2022/07/02 00:31:43;;;;;;;3.70;1.23;;;13.60;93.10;;;;;;5060687;28;20471;-48
2022/07/02 00:34:11;;;;;;;4.93;1.77;;;13.50;93.10;;;;;;5060770;28;20727;-47
2022/07/02 00:36:39;;;;;;;9.80;1.90;;;13.40;93.60;;;;;;5050744;28;20472;-48
2022/07/02 00:39:05;;;;;;;1.90;1.20;;;13.40;93.70;;;;;;5063376;28;20529;-47
2022/07/02 00:41:33;;;;;;;3.13;1.40;;;13.40;93.90;;;;;;5062762;28;20474;-48
2022/07/02 00:44:04;;;;;;;8.53;1.70;;;13.40;93.60;;;;;;5059748;28;20479;-47
2022/07/02 00:46:32;;;;;;;1.90;1.60;;;13.40;93.60;;;;;;5058686;28;20509;-47
2022/07/02 00:49:00;;;;;;;1.90;1.30;;;13.50;93.30;;;;;;5061319;28;20481;-48
2022/07/02 00:51:26;;;;;;;4.23;1.47;;;13.40;93.20;;;;;;5062468;28;21020;-47
2022/07/02 00:53:53;;;;;;;2.80;1.50;;;13.40;93.00;;;;;;5056727;28;20482;-53
2022/07/02 00:56:21;;;;;;;1.90;1.03;;;13.30;93.30;;;;;;5054402;28;21055;-47
2022/07/02 00:58:47;;;;;;;3.00;1.20;;;13.30;92.80;;;;;;5052321;28;20484;-47
2022/07/02 01:01:15;;;;;;;4.77;1.53;;;13.30;92.80;;;;;;5048700;28;20994;-47
2022/07/02 01:03:43;;;;;;;2.30;1.50;;;13.30;92.80;;;;;;5052826;28;20485;-47
2022/07/02 01:06:11;;;;;;;3.60;1.60;;;13.30;92.90;;;;;;5055591;28;20501;-47
2022/07/02 01:11:26;;;;;;;5.43;1.63;;;13.20;92.80;;;;;;5053190;28;20483;-47
2022/07/02 01:13:55;;;;;;;2.43;1.40;;;13.20;92.80;;;;;;5059746;28;20491;-48
2022/07/02 01:16:23;;;;;;;2.67;1.30;;;13.10;92.90;;;;;;5052860;28;20561;-47
2022/07/02 01:18:50;;;;;;;4.33;1.40;;;13.10;93.10;;;;;;5058693;28;20479;-47
2022/07/02 01:21:17;;;;;;;1.90;1.50;;;13.10;93.40;;;;;;5059334;28;20481;-47
2022/07/02 01:23:45;;;;;;;1.80;1.27;;;13.10;93.40;;;;;;5047665;28;20481;-47
2022/07/02 01:26:12;;;;;;;2.80;1.33;;;13.10;93.20;;;;;;5052656;28;20477;-47
2022/07/02 01:28:38;;;;;;;2.33;1.93;;;13.00;93.20;;;;;;5056664;28;20806;-48
2022/07/02 01:31:05;;;;;;;4.60;1.60;;;13.00;93.20;;;;;;5056370;28;20484;-47
2022/07/02 01:33:32;;;;;;;2.10;1.30;;;12.90;93.10;;;;;;5051582;28;20493;-47
2022/07/02 01:35:59;;;;;;;2.00;1.60;;;12.90;93.20;;;;;;5055582;28;20934;-47
2022/07/02 01:38:25;;;;;;;2.10;1.40;;;12.90;93.50;;;;;;5056167;28;20476;-47
2022/07/02 01:41:38;;;;;;;5.50;1.53;;;12.80;93.20;;;;;;5058698;28;20492;-48
2022/07/02 01:43:40;;;;;;;1.90;1.10;;;12.80;93.00;;;;;;5026818;28;20509;-47
2022/07/02 01:46:08;;;;;;;5.53;1.60;;;12.80;93.00;;;;;;5056431;28;20993;-47
2022/07/02 01:48:34;;;;;;;2.10;1.47;;;12.70;93.30;;;;;;5056225;28;20881;-47
2022/07/02 01:51:01;;;;;;;1.90;1.30;;;12.70;93.10;;;;;;5055883;28;21025;-47
2022/07/02 01:53:28;;;;;;;4.63;1.40;;;12.70;93.10;;;;;;5056209;28;20490;-47
2022/07/02 01:55:56;;;;;;;1.90;1.30;;;12.70;93.10;;;;;;5052711;28;20483;-48
2022/07/02 01:58:22;;;;;;;2.10;1.40;;;12.60;93.20;;;;;;5046973;28;21140;-47
2022/07/02 02:00:49;;;;;;;10.87;1.60;;;12.50;93.40;;;;;;5046414;28;20934;-48
2022/07/02 02:03:16;;;;;;;1.87;1.20;;;12.60;93.30;;;;;;5054383;28;20485;-48
2022/07/02 02:05:42;;;;;;;2.40;1.23;;;12.50;93.10;;;;;;5056354;28;20485;-47
2022/07/02 02:08:09;;;;;;;3.13;1.50;;;12.50;93.30;;;;;;5049129;28;20475;-48
2022/07/02 02:10:36;;;;;;;2.70;1.17;;;12.60;93.30;;;;;;5056355;28;20486;-47
2022/07/02 02:13:04;;;;;;;2.40;1.40;;;12.50;93.20;;;;;;5053572;28;20501;-47
2022/07/02 02:15:30;;;;;;;4.43;1.40;;;12.20;94.10;;;;;;5055166;28;20494;-48
2022/07/02 02:17:57;;;;;;;2.00;1.30;;;12.10;94.40;;;;;;5053190;28;20480;-48
2022/07/02 02:20:24;;;;;;;2.10;1.30;;;12.00;94.30;;;;;;5060177;28;20494;-48
2022/07/02 02:22:50;;;;;;;3.90;1.30;;;11.90;94.30;;;;;;5056668;28;20484;-48
2022/07/02 02:25:17;;;;;;;2.47;1.40;;;11.90;94.20;;;;;;5055996;28;20488;-48
2022/07/02 02:27:44;;;;;;;3.80;1.50;;;11.90;94.20;;;;;;5055942;28;20480;-48
2022/07/02 02:30:13;;;;;;;4.27;1.40;;;11.90;93.90;;;;;;5059497;28;20474;-48
2022/07/02 02:32:40;;;;;;;2.73;1.50;;;12.00;93.90;;;;;;5057800;28;20507;-48
2022/07/02 02:35:07;;;;;;;3.57;1.40;;;12.00;93.80;;;;;;5047556;28;20484;-47
2022/07/02 02:37:34;;;;;;;4.60;2.17;;;12.00;93.80;;;;;;5055253;28;20916;-48
2022/07/02 02:40:01;;;;;;;2.67;1.97;;;12.10;93.80;;;;;;5054042;28;20480;-48
2022/07/02 02:42:27;;;;;;;2.03;1.27;;;12.00;93.60;;;;;;5058893;28;21000;-48
2022/07/02 02:44:54;;;;;;;1.90;1.40;;;12.10;93.50;;;;;;5056916;28;20487;-48
2022/07/02 02:47:23;;;;;;;1.80;1.10;;;12.10;93.30;;;;;;5052282;28;20484;-48
2022/07/02 02:49:49;;;;;;;2.10;1.43;;;12.10;93.30;;;;;;5054108;28;20479;-48
2022/07/02 02:52:16;;;;;;;6.53;1.87;;;12.10;93.40;;;;;;5055341;28;20816;-48
2022/07/02 02:54:43;;;;;;;2.83;1.23;;;12.10;93.50;;;;;;5062149;28;20985;-48
2022/07/02 02:57:09;;;;;;;3.40;1.63;;;12.10;93.40;;;;;;5052706;28;20479;-48
2022/07/02 02:59:36;;;;;;;8.43;1.70;;;12.10;93.30;;;;;;5044702;28;20482;-48
2022/07/02 03:02:03;;;;;;;2.20;1.57;;;12.10;93.10;;;;;;5046038;28;20484;-48
2022/07/02 03:04:31;;;;;;;3.40;1.77;;;12.10;93.30;;;;;;5059057;28;20873;-48
2022/07/02 03:06:58;;;;;;;11.80;1.27;;;12.00;93.20;;;;;;5059853;28;20760;-48
2022/07/02 03:09:25;;;;;;;1.97;1.43;;;12.00;93.10;;;;;;5057107;28;20484;-48
2022/07/02 03:11:51;;;;;;;2.10;1.90;;;11.90;93.10;;;;;;5037547;28;20483;-48
2022/07/02 03:14:18;;;;;;;4.37;1.60;;;11.80;93.20;;;;;;5047508;28;20487;-48
2022/07/02 03:16:45;;;;;;;1.70;0.97;;;11.80;93.20;;;;;;5054752;28;21164;-48
2022/07/02 03:19:11;;;;;;;2.20;1.40;;;11.80;93.20;;;;;;5056357;28;20482;-48
2022/07/02 03:21:39;;;;;;;1.80;1.17;;;11.80;93.30;;;;;;5063038;28;20480;-48
2022/07/02 03:24:07;;;;;;;2.17;1.30;;;11.80;93.40;;;;;;5059278;28;20485;-48
2022/07/02 03:26:33;;;;;;;1.97;1.20;;;11.70;93.60;;;;;;5056862;28;21015;-48
2022/07/02 03:29:00;;;;;;;1.80;1.30;;;11.70;93.70;;;;;;5055063;28;20497;-48
2022/07/02 03:31:27;;;;;;;4.10;1.37;;;11.70;93.80;;;;;;5057715;28;20993;-48
2022/07/02 03:33:54;;;;;;;2.00;1.80;;;11.60;93.60;;;;;;5058225;28;20838;-48
2022/07/02 03:36:20;;;;;;;2.00;1.47;;;11.70;93.60;;;;;;5060277;28;20759;-48
2022/07/02 03:38:48;;;;;;;2.20;1.60;;;11.70;93.60;;;;;;5057712;28;20805;-48
2022/07/02 03:41:15;;;;;;;2.10;1.30;;;11.60;93.60;;;;;;5059219;28;20480;-48
2022/07/02 03:43:42;;;;;;;2.87;1.20;;;11.50;93.60;;;;;;5064941;28;20515;-48
2022/07/02 03:46:08;;;;;;;2.00;1.50;;;11.50;93.60;;;;;;5057925;28;20487;-48
2022/07/02 03:48:35;;;;;;;2.93;1.43;;;11.50;93.70;;;;;;5059402;28;20492;-48
2022/07/02 03:51:02;;;;;;;2.43;1.70;;;11.40;93.60;;;;;;5057429;28;20486;-48
2022/07/02 03:53:29;;;;;;;2.53;1.53;;;11.40;93.60;;;;;;5055117;28;20847;-48
2022/07/02 03:55:57;;;;;;;2.73;2.10;;;11.40;93.60;;;;;;5052810;28;20488;-48
2022/07/02 03:58:24;;;;;;;2.00;1.30;;;11.40;93.70;;;;;;5050245;28;20483;-48
2022/07/02 04:00:51;;;;;;;2.20;1.50;;;11.40;93.80;;;;;;5057315;28;20502;-48
2022/07/02 04:03:17;;;;;;;5.50;1.80;;;11.40;94.00;;;;;;5059204;28;20484;-48
2022/07/02 04:05:44;;;;;;;6.90;1.33;;;11.40;94.00;;;;;;5046348;28;20984;-48
2022/07/02 04:08:11;;;;;;;2.43;1.80;;;11.40;94.30;;;;;;5054096;28;20854;-48
2022/07/02 04:10:37;;;;;;;2.10;1.57;;;11.40;94.20;;;;;;5061420;28;20471;-48
2022/07/02 04:13:06;;;;;;;5.30;1.87;;;11.50;94.20;;;;;;5055284;28;21116;-48
2022/07/02 04:15:33;;;;;;;3.20;2.17;;;11.50;94.50;;;;;;5057409;28;20494;-49
2022/07/02 04:17:59;;;;;;;2.33;1.63;;;11.50;94.30;;;;;;5045924;28;20832;-48
2022/07/02 04:20:27;;;;;;;3.03;1.40;;;11.50;94.20;;;;;;5059003;28;21037;-49
2022/07/02 04:22:53;;;;;;;1.90;1.20;;;11.50;94.00;;;;;;5057810;28;21018;-48
2022/07/02 04:25:20;;;;;;;3.10;1.50;;;11.60;94.30;;;;;;5049786;28;20483;-48
2022/07/02 04:27:47;;;;;;;6.33;1.80;;;11.60;94.20;;;;;;5052747;28;20977;-49
2022/07/02 04:30:15;;;;;;;9.57;1.80;;;11.60;94.30;;;;;;5056871;28;20486;-48
2022/07/02 04:32:41;;;;;;;4.47;1.70;;;11.60;94.50;;;;;;5057521;28;21059;-48
2022/07/02 04:35:08;;;;;;;3.20;1.70;;;11.60;95.10;;;;;;5053920;28;21001;-48
2022/07/02 04:37:35;;;;;;;2.13;1.53;;;11.70;95.20;;;;;;5053689;28;20482;-48
2022/07/02 04:40:02;;;;;;;2.57;1.30;;;11.70;95.30;;;;;;5054389;28;20482;-50
2022/07/02 04:42:29;;;;;;;5.53;1.33;;;11.80;96.00;;;;;;5057551;28;20496;-49
2022/07/02 04:44:56;;;;;;;2.13;1.67;;;11.70;96.20;;;;;;5051345;28;20980;-49
2022/07/02 04:47:24;;;;;;;3.50;1.43;;;11.70;96.40;;;;;;5052361;28;20486;-48
2022/07/02 04:49:51;;;;;;;4.00;1.90;;;11.80;96.50;;;;;;5057978;28;20545;-49
2022/07/02 04:52:18;;;;;;;2.20;1.60;;;11.80;96.90;;;;;;5056743;28;20866;-48
2022/07/02 04:54:44;;;;;;;2.20;1.70;;;11.80;96.90;;;;;;5057533;28;20482;-48
2022/07/02 04:57:11;;;;;;;2.80;1.87;;;11.90;96.70;;;;;;5049275;28;20486;-50
2022/07/02 04:59:38;;;;;;;4.63;2.27;;;12.00;97.20;;;;;;5049152;28;20497;-48
2022/07/02 05:02:05;;;;;;;6.33;2.00;;;11.90;97.60;;;;;;5054063;28;20482;-48
2022/07/02 05:04:33;;;;;;;2.77;1.77;;;12.00;98.00;;;;;;5050791;28;20969;-49
2022/07/02 05:07:00;;;;;;;2.53;2.33;;;12.10;98.30;;;;;;5050418;28;20509;-48
2022/07/02 05:09:26;;;;;;;2.97;2.47;;;12.20;98.50;;;;;;5047744;28;20500;-48
2022/07/02 05:11:53;;;;;;;4.50;2.30;;;12.50;98.20;;;;;;5057405;28;20486;-48
2022/07/02 05:14:19;;;;;;;11.53;2.10;;;12.60;98.10;;;;;;5056044;28;20503;-48
2022/07/02 05:16:46;;;;;;;7.13;2.10;;;12.50;98.30;;;;;;5055411;28;20552;-52
2022/07/02 05:19:13;;;;;;;4.73;1.97;;;12.60;98.50;;;;;;5059129;28;21011;-48
2022/07/02 05:21:42;;;;;;;3.83;2.30;;;12.80;98.90;;;;;;5055233;28;20490;-48
2022/07/02 05:24:08;;;;;;;3.10;2.50;;;12.90;99.00;;;;;;5056134;28;20841;-48
2022/07/02 05:26:35;;;;;;;2.40;2.00;;;13.00;99.00;;;;;;5050811;28;20472;-48
2022/07/02 05:29:02;;;;;;;3.27;2.80;;;13.10;98.90;;;;;;5056572;28;21112;-48
2022/07/02 05:31:29;;;;;;;2.53;2.00;;;13.20;98.90;;;;;;5030358;28;20483;-48
2022/07/02 05:33:55;;;;;;;2.50;2.23;;;13.40;98.70;;;;;;5055487;28;20477;-48
2022/07/02 05:36:22;;;;;;;5.90;2.70;;;13.70;99.00;;;;;;5056904;28;20469;-48
2022/07/02 05:38:50;;;;;;;3.03;2.50;;;13.80;99.20;;;;;;5055185;28;20487;-48
2022/07/02 05:41:17;;;;;;;4.93;2.30;;;13.90;99.50;;;;;;5058446;28;20488;-48
2022/07/02 05:43:44;;;;;;;2.73;2.27;;;14.20;99.00;;;;;;5055216;28;20742;-48
2022/07/02 05:46:10;;;;;;;2.47;2.27;;;14.20;98.70;;;;;;5053574;28;20836;-48
2022/07/02 05:48:37;;;;;;;3.93;2.80;;;14.50;98.60;;;;;;5056961;28;21013;-48
2022/07/02 05:51:04;;;;;;;5.40;3.00;;;14.60;98.10;;;;;;5056375;28;21033;-49
2022/07/02 05:53:30;;;;;;;2.47;2.27;;;14.80;98.10;;;;;;5055299;28;20482;-48
2022/07/02 05:55:58;;;;;;;7.97;2.37;;;14.90;98.10;;;;;;5044177;28;20491;-48
2022/07/02 05:58:25;;;;;;;5.20;2.53;;;15.00;98.40;;;;;;5060296;28;20484;-48
2022/07/02 06:00:52;;;;;;;3.07;2.47;;;15.10;98.20;;;;;;5056359;28;20490;-49
2022/07/02 06:03:18;;;;;;;7.73;2.50;;;15.20;98.20;;;;;;5055538;28;21028;-48
2022/07/02 06:08:29;;;;;;;8.60;2.17;;;15.50;98.60;;;;;;5057298;28;20484;-49
2022/07/02 06:10:57;;;;;;;3.60;2.67;;;15.60;98.40;;;;;;5055465;28;20482;-49
2022/07/02 06:13:24;;;;;;;2.40;2.13;;;15.70;98.30;;;;;;5056460;28;20971;-49
2022/07/02 06:15:50;;;;;;;5.33;2.20;;;16.00;98.20;;;;;;5054049;28;21344;-49
2022/07/02 06:18:17;;;;;;;2.73;2.03;;;16.10;98.60;;;;;;5055520;28;21010;-49
2022/07/02 06:20:44;;;;;;;2.40;2.00;;;16.30;97.80;;;;;;5056987;28;20474;-49
2022/07/02 06:23:10;;;;;;;3.20;2.60;;;16.40;97.80;;;;;;5052696;28;20506;-50
2022/07/02 06:25:37;;;;;;;5.37;2.30;;;16.70;97.90;;;;;;5056933;28;20879;-50
2022/07/02 06:28:05;;;;;;;4.30;2.20;;;16.80;97.90;;;;;;5054592;28;20817;-50
2022/07/02 06:30:32;;;;;;;3.90;1.83;;;17.00;97.70;;;;;;5045640;28;20481;-49
2022/07/02 06:32:59;;;;;;;3.43;3.07;;;17.30;97.40;;;;;;5055883;28;20482;-49
2022/07/02 06:35:25;;;;;;;2.80;2.60;;;17.50;97.90;;;;;;5056670;28;20490;-50
2022/07/02 06:37:53;;;;;;;5.97;3.63;;;17.80;97.00;;;;;;5057110;28;20490;-50
2022/07/02 06:40:19;;;;;;;6.17;3.60;;;18.00;96.70;;;;;;5058268;28;20494;-49
2022/07/02 06:42:46;;;;;;;2.50;2.00;;;18.00;96.80;;;;;;5059750;28;20964;-51
2022/07/02 06:45:14;;;;;;;4.93;2.23;;;18.30;96.00;;;;;;5058990;28;20486;-49
2022/07/02 06:47:42;;;;;;;2.77;1.80;;;18.50;96.30;;;;;;5056865;28;20474;-50
2022/07/02 06:50:10;;;;;;;3.77;2.70;;;18.60;96.10;;;;;;5059573;28;20466;-49
2022/07/02 06:52:37;;;;;;;9.73;3.90;;;18.90;95.70;;;;;;5060163;28;20482;-50
2022/07/02 06:55:04;;;;;;;6.40;1.97;;;19.10;95.70;;;;;;5060267;28;21067;-49
2022/07/02 06:57:31;;;;;;;2.47;1.90;;;19.30;95.30;;;;;;5060324;28;20479;-49
2022/07/02 06:59:58;;;;;;;9.63;1.70;;;19.50;95.30;;;;;;5059551;28;20475;-50
2022/07/02 07:02:25;;;;;;;2.70;1.70;;;19.80;95.20;;;;;;5058631;28;20485;-50
2022/07/02 07:04:52;;;;;;;4.20;1.83;;;20.00;95.10;;;;;;5060153;28;20566;-50
2022/07/02 07:07:19;;;;;;;6.83;1.47;;;20.30;94.00;;;;;;5056205;28;20481;-50
2022/07/02 07:09:46;;;;;;;3.13;1.80;;;20.50;93.90;;;;;;5053218;28;20993;-51
2022/07/02 07:12:13;;;;;;;7.43;1.80;;;20.80;93.70;;;;;;5062066;28;20494;-50
2022/07/02 07:14:39;;;;;;;5.10;1.50;;;21.10;92.80;;;;;;5056610;28;20858;-50
2022/07/02 07:17:06;;;;;;;2.00;1.33;;;21.30;92.80;;;;;;5056398;28;20534;-50
2022/07/02 07:19:34;;;;;;;2.60;1.60;;;21.60;92.80;;;;;;5055942;28;20471;-50
2022/07/02 07:22:02;;;;;;;6.83;1.37;;;21.90;91.80;;;;;;5059292;28;20760;-50
2022/07/02 07:24:28;;;;;;;3.73;1.40;;;22.10;91.10;;;;;;5061963;28;20478;-50
2022/07/02 07:26:57;;;;;;;2.20;1.50;;;22.30;91.10;;;;;;5055432;28;20495;-50
2022/07/02 07:29:24;;;;;;;7.73;2.17;;;22.50;90.90;;;;;;5051447;28;20894;-50
2022/07/02 07:31:50;;;;;;;2.00;1.80;;;22.60;90.80;;;;;;5050557;28;20536;-50
2022/07/02 07:34:17;;;;;;;1.97;1.53;;;22.80;87.20;;;;;;5060977;28;20482;-51
2022/07/02 07:36:45;;;;;;;6.27;1.67;;;23.00;90.30;;;;;;5056792;28;20481;-50
2022/07/02 07:39:12;;;;;;;2.37;1.30;;;23.20;89.90;;;;;;5056566;28;20504;-50
2022/07/02 07:41:39;;;;;;;2.20;1.03;;;23.40;87.40;;;;;;5059562;28;20522;-50
2022/07/02 07:44:05;;;;;;;2.20;1.33;;;23.60;87.30;;;;;;5059039;28;20474;-50
2022/07/02 07:46:32;;;;;;;3.70;1.70;;;23.70;85.00;;;;;;5055732;28;20481;-49
2022/07/02 07:48:59;;;;;;;2.67;1.30;;;23.90;82.10;;;;;;5057170;28;20471;-49
2022/07/02 07:51:26;;;;;;;5.30;1.53;;;23.90;84.10;;;;;;5056978;28;20485;-50
2022/07/02 07:53:54;;;;;;;1.87;1.20;;;23.90;82.80;;;;;;5058994;28;20558;-50
2022/07/02 07:56:21;;;;;;;3.07;1.10;;;24.10;82.30;;;;;;5047261;28;20514;-50
2022/07/02 07:58:48;;;;;;;4.50;1.43;;;24.00;77.80;;;;;;5052848;28;20479;-50
2022/07/02 08:01:15;;;;;;;2.57;1.00;;;23.90;78.10;;;;;;5060283;28;21342;-51
2022/07/02 08:03:41;;;;;;;3.67;1.00;;;23.70;77.00;;;;;;5063841;28;20486;-50
2022/07/02 08:06:08;;;;;;;4.10;1.17;;;24.10;78.90;;;;;;5055169;28;20496;-50
2022/07/02 08:08:35;;;;;;;1.80;1.10;;;24.20;80.40;;;;;;5058946;28;20906;-50
2022/07/02 08:11:04;;;;;;;1.80;1.00;;;24.20;75.10;;;;;;5056117;28;20549;-50
2022/07/02 08:13:31;;;;;;;3.23;0.80;;;24.30;78.10;;;;;;5058906;28;20823;-50
2022/07/02 08:15:57;;;;;;;1.60;0.77;;;24.50;76.90;;;;;;5055185;28;20486;-49
2022/07/02 08:18:24;;;;;;;2.00;1.27;;;24.80;78.70;;;;;;5057505;28;20487;-49
2022/07/02 08:20:51;;;;;;;2.70;0.93;;;25.10;76.20;;;;;;5058431;28;20503;-50
2022/07/02 08:23:17;;;;;;;2.70;1.20;;;25.30;75.90;;;;;;5057379;28;20493;-49
2022/07/02 08:25:44;;;;;;;1.77;0.90;;;25.40;75.20;;;;;;5050168;28;20479;-50
2022/07/02 08:28:12;;;;;;;5.50;1.43;;;25.70;74.90;;;;;;5048168;28;21869;-50
2022/07/02 08:30:39;;;;;;;3.23;1.37;;;25.70;76.50;;;;;;5059672;28;20479;-51
2022/07/02 08:33:06;;;;;;;1.80;1.20;;;25.90;74.50;;;;;;5052093;28;21088;-50
2022/07/02 08:35:32;;;;;;;3.90;1.00;;;26.20;73.70;;;;;;5056713;28;20868;-49
2022/07/02 08:37:59;;;;;;;2.10;1.07;;;26.30;72.20;;;;;;5055699;28;20482;-49
2022/07/02 08:40:27;;;;;;;1.80;0.90;;;26.40;72.20;;;;;;5055802;28;20490;-49
2022/07/02 08:42:54;;;;;;;3.63;0.97;;;26.40;72.60;;;;;;5057447;28;20498;-49
2022/07/02 08:45:24;;;;;;;1.93;0.90;;;26.60;72.20;;;;;;5054704;28;20891;-49
2022/07/02 08:47:52;;;;;;;5.97;1.00;;;26.60;72.00;;;;;;5053766;28;20475;-49
2022/07/02 08:50:21;;;;;;;3.80;1.10;;;26.80;71.10;;;;;;5056514;28;20945;-55
2022/07/02 08:52:49;;;;;;;2.60;1.27;;;26.70;71.90;;;;;;5055857;28;20562;-50
2022/07/02 08:55:17;;;;;;;3.77;1.33;;;26.90;73.40;;;;;;5055998;28;20545;-49
2022/07/02 08:57:45;;;;;;;4.00;1.03;;;27.00;71.30;;;;;;5053765;28;20487;-51
2022/07/02 09:00:13;;;;;;;1.93;1.27;;;27.00;70.40;;;;;;5055841;28;20490;-49
2022/07/02 09:02:42;;;;;;;1.97;1.00;;;26.80;65.70;;;;;;5057117;28;20453;-50
2022/07/02 09:05:10;;;;;;;5.10;0.93;;;26.80;66.10;;;;;;5026208;28;20474;-49
2022/07/02 09:07:38;;;;;;;1.90;1.00;;;26.90;71.20;;;;;;5028500;28;20482;-50
2022/07/02 09:10:06;;;;;;;4.03;1.00;;;26.90;68.60;;;;;;5060396;28;20487;-49
2022/07/02 09:12:33;;;;;;;1.80;0.83;;;26.80;68.40;;;;;;5054599;28;20478;-50
2022/07/02 09:15:00;;;;;;;1.90;0.80;;;26.50;66.80;;;;;;5054816;28;20499;-50
2022/07/02 09:17:26;;;;;;;2.20;1.03;;;26.40;68.60;;;;;;5056899;28;20473;-50
2022/07/02 09:19:54;;;;;;;2.30;1.17;;;26.50;68.90;;;;;;5060411;28;20517;-50
2022/07/02 09:22:31;;;;;;;2.93;1.40;;;26.60;70.00;;;;;;5051577;28;20913;-49
2022/07/02 09:25:07;;;;;;;3.10;0.90;;;26.80;68.30;;;;;;5057096;28;20997;-50
2022/07/02 09:27:34;;;;;;;2.27;1.00;;;26.60;64.70;;;;;;5053857;28;20445;-51
2022/07/02 09:30:01;;;;;;;2.30;0.97;;;26.50;65.50;;;;;;5055879;28;21406;-49
2022/07/02 09:32:28;;;;;;;1.90;0.90;;;26.60;66.30;;;;;;5057883;28;20468;-49
2022/07/02 09:34:56;;;;;;;2.47;1.00;;;26.60;66.80;;;;;;5059555;28;20475;-49
2022/07/02 09:37:25;;;;;;;1.93;0.90;;;27.00;69.40;;;;;;5056243;28;20481;-49
2022/07/02 09:39:53;;;;;;;1.80;1.23;;;27.20;69.50;;;;;;5057706;28;20845;-49
2022/07/02 09:42:27;;;;;;;2.20;1.20;;;27.40;72.30;;;;;;5047089;28;20474;-49
2022/07/02 09:44:54;;;;;;;4.87;1.20;;;27.00;64.00;;;;;;5058297;28;20479;-49
2022/07/02 09:47:32;;;;;;;2.10;1.20;;;27.00;65.90;;;;;;5056356;28;20479;-50
2022/07/02 09:50:03;;;;;;;2.33;1.00;;;26.60;68.60;;;;;;5058212;28;20568;-48
2022/07/02 09:52:30;;;;;;;1.73;0.97;;;26.40;64.70;;;;;;5054787;28;21000;-48
2022/07/02 09:54:57;;;;;;;2.20;1.20;;;26.60;66.50;;;;;;5056974;28;20483;-48
2022/07/02 09:57:23;;;;;;;2.00;1.00;;;27.00;69.50;;;;;;5055837;28;20475;-48
2022/07/02 09:59:50;;;;;;;1.80;1.20;;;27.00;68.10;;;;;;5056969;28;20996;-48
2022/07/02 10:02:23;;;;;;;3.03;1.10;;;26.60;63.50;;;;;;5056900;28;20857;-48
2022/07/02 10:04:53;;;;;;;3.50;1.10;;;26.60;66.10;;;;;;5038766;28;20557;-49
2022/07/02 10:07:23;;;;;;;2.60;1.20;;;26.50;66.00;;;;;;5056451;28;20486;-48
2022/07/02 10:09:50;;;;;;;5.50;0.97;;;26.80;67.80;;;;;;5059943;28;20464;-49
2022/07/02 10:12:17;;;;;;;1.70;1.10;;;26.60;66.60;;;;;;5062119;28;20521;-50
2022/07/02 10:14:45;;;;;;;1.50;0.70;;;26.40;68.10;;;;;;5048893;28;20483;-48
2022/07/02 10:17:13;;;;;;;2.30;1.37;;;26.10;69.20;;;;;;5059732;28;20453;-48
2022/07/02 10:19:40;;;;;;;2.10;1.10;;;26.10;69.70;;;;;;5059054;28;20479;-48
2022/07/02 10:22:08;;;;;;;3.40;1.20;;;26.40;68.10;;;;;;5061618;28;20453;-48
2022/07/02 10:24:37;;;;;;;2.03;1.10;;;26.30;63.80;;;;;;5054752;28;20482;-49
2022/07/02 10:27:05;;;;;;;2.90;1.43;;;26.30;68.90;;;;;;5055377;28;20929;-48
2022/07/02 10:29:32;;;;;;;2.33;1.30;;;26.30;66.50;;;;;;5060822;28;20504;-48
2022/07/02 10:32:08;;;;;;;2.00;1.20;;;26.30;66.80;;;;;;5061206;28;20482;-49
2022/07/02 10:34:48;;;;;;;1.70;1.17;;;26.40;68.40;;;;;;5052136;28;20560;-49
2022/07/02 10:37:16;;;;;;;4.47;1.17;;;26.50;67.60;;;;;;5033040;28;20466;-49
2022/07/02 10:39:44;;;;;;;1.70;1.13;;;26.10;65.70;;;;;;5062431;28;20466;-51
2022/07/02 10:42:11;;;;;;;2.10;0.87;;;26.10;67.80;;;;;;5059955;28;20465;-48
2022/07/02 10:44:39;;;;;;;1.60;0.90;;;26.30;66.90;;;;;;5061813;28;20474;-48
2022/07/02 10:47:06;;;;;;;2.03;1.03;;;26.50;67.50;;;;;;5052846;28;20482;-48
2022/07/02 10:49:34;;;;;;;2.97;1.27;;;26.70;71.90;;;;;;5059747;28;20460;-48
2022/07/02 10:52:04;;;;;;;2.57;0.83;;;27.00;71.80;;;;;;5062513;28;20570;-49
2022/07/02 10:54:32;;;;;;;2.33;0.90;;;27.20;68.40;;;;;;5060334;28;20566;-48
2022/07/02 10:57:00;;;;;;;2.27;1.30;;;27.60;70.50;;;;;;5057369;28;20484;-48
2022/07/02 10:59:28;;;;;;;3.80;1.00;;;28.00;72.60;;;;;;5063156;28;21004;-49
2022/07/02 11:02:02;;;;;;;1.80;1.03;;;28.30;68.70;;;;;;5060368;28;20486;-49
2022/07/02 11:04:29;;;;;;;1.90;1.17;;;28.10;62.80;;;;;;5050872;28;21001;-50
2022/07/02 11:07:06;;;;;;;1.80;0.70;;;27.70;67.10;;;;;;5060500;28;20532;-49
2022/07/02 11:09:33;;;;;;;1.57;0.70;;;27.70;66.50;;;;;;5058597;28;20479;-51
2022/07/02 11:12:02;;;;;;;1.80;0.90;;;27.30;66.60;;;;;;5061793;28;20493;-48
2022/07/02 11:14:30;;;;;;;2.67;1.00;;;27.00;65.70;;;;;;5058326;28;20454;-49
2022/07/02 11:16:57;;;;;;;1.73;1.10;;;27.00;66.90;;;;;;5059026;28;20552;-49
2022/07/02 11:19:26;;;;;;;4.03;1.10;;;26.80;66.60;;;;;;5060129;28;20810;-49
2022/07/02 11:21:54;;;;;;;1.87;0.90;;;26.80;70.90;;;;;;5059938;28;20493;-48
2022/07/02 11:24:23;;;;;;;1.80;0.90;;;26.60;65.90;;;;;;5064191;28;20482;-49
2022/07/02 11:26:49;;;;;;;2.40;1.00;;;26.60;65.30;;;;;;5055420;28;20486;-49
2022/07/02 11:29:18;;;;;;;1.60;0.83;;;27.00;70.40;;;;;;5058772;28;20483;-48
2022/07/02 11:31:46;;;;;;;1.60;0.70;;;27.20;66.00;;;;;;5050259;28;20479;-49
2022/07/02 11:34:15;;;;;;;1.60;0.80;;;27.70;67.20;;;;;;5055294;28;20553;-49
2022/07/02 11:36:41;;;;;;;1.63;0.90;;;27.90;65.80;;;;;;5053283;28;20539;-49
2022/07/02 11:39:10;;;;;;;1.87;1.10;;;28.00;67.20;;;;;;5060458;28;20483;-49
2022/07/02 11:41:38;;;;;;;1.77;1.10;;;28.00;68.20;;;;;;5057671;28;20522;-49
2022/07/02 11:44:14;;;;;;;2.63;1.00;;;28.40;69.40;;;;;;5060173;28;20462;-49
2022/07/02 11:46:43;;;;;;;1.83;1.10;;;28.50;66.20;;;;;;5057847;28;20457;-48
2022/07/02 11:49:15;;;;;;;1.80;0.80;;;28.80;66.30;;;;;;5059667;28;20454;-48
2022/07/02 11:51:42;;;;;;;1.97;0.90;;;28.80;65.40;;;;;;5061872;28;20473;-49
2022/07/02 11:54:10;;;;;;;2.10;0.90;;;;;;;;;;5055706;28;20965;-49
2022/07/02 11:56:39;;;;;;;1.80;0.90;;;28.40;67.60;;;;;;5056896;28;20460;-50
2022/07/02 11:59:08;;;;;;;1.80;0.90;;;28.20;65.60;;;;;;5054645;28;20516;-49
2022/07/02 12:01:36;;;;;;;1.90;1.10;;;27.80;63.30;;;;;;5055902;28;20953;-49
2022/07/02 12:04:05;;;;;;;1.87;1.07;;;27.80;67.20;;;;;;5060414;28;20504;-48
2022/07/02 12:06:34;;;;;;;1.80;1.00;;;28.10;67.50;;;;;;5056024;28;20479;-49
2022/07/02 12:09:02;;;;;;;1.90;1.10;;;28.40;68.30;;;;;;5062797;28;20801;-48
2022/07/02 12:11:30;;;;;;;1.70;0.97;;;27.60;60.10;;;;;;5057152;28;20479;-49
2022/07/02 12:13:57;;;;;;;2.43;0.97;;;28.30;67.90;;;;;;5059413;28;20512;-49
2022/07/02 12:16:26;;;;;;;1.70;0.80;;;28.50;65.30;;;;;;5052535;28;20487;-49
2022/07/02 12:19:01;;;;;;;3.23;1.27;;;28.20;64.50;;;;;;5034258;28;20479;-48
2022/07/02 12:21:37;;;;;;;1.70;1.00;;;28.20;65.30;;;;;;5060112;28;20482;-48
2022/07/02 12:24:06;;;;;;;1.70;1.10;;;28.20;66.70;;;;;;5058727;28;21053;-49
2022/07/02 12:26:33;;;;;;;2.33;1.20;;;27.90;65.10;;;;;;5055728;28;20469;-48
2022/07/02 12:31:49;;;;;;;1.87;1.00;;;27.60;66.90;;;;;;5024322;28;20980;-49
2022/07/02 12:34:17;;;;;;;1.80;1.10;;;27.70;64.30;;;;;;5032300;28;20490;-48
2022/07/02 12:36:54;;;;;;;2.77;1.10;;;27.80;66.70;;;;;;5056133;28;20489;-48
2022/07/02 12:39:22;;;;;;;1.70;1.07;;;27.80;64.30;;;;;;5039389;28;20478;-52
2022/07/02 12:41:49;;;;;;;2.43;1.10;;;27.90;66.80;;;;;;5050377;28;21025;-48
2022/07/02 12:44:18;;;;;;;1.87;1.23;;;27.60;63.10;;;;;;5052847;28;20963;-48
2022/07/02 12:46:46;;;;;;;3.40;1.33;;;27.60;68.90;;;;;;5054890;28;20895;-48
2022/07/02 12:49:18;;;;;;;4.23;1.20;;;27.90;68.00;;;;;;5055348;28;21015;-48
2022/07/02 12:52:01;;;;;;;1.70;1.13;;;28.30;69.00;;;;;;5059385;28;20831;-48
2022/07/02 12:54:35;;;;;;;4.20;1.30;;;28.20;62.80;;;;;;5057192;28;20473;-48
2022/07/02 12:57:16;;;;;;;4.80;1.20;;;28.50;62.80;;;;;;5052593;28;20457;-49
2022/07/02 12:59:43;;;;;;;2.10;1.20;;;28.50;66.70;;;;;;5055871;28;20482;-49